sensor_id;sensor_type;location;lat;lon;timestamp;temperature;humidity
37594;DHT22;23441;50.856;6.076;2023-01-16T00:00:51;4.20;99.90
37594;DHT22;23441;50.856;6.076;2023-01-16T00:03:17;4.20;99.90
37594;DHT22;23441;50.856;6.076;2023-01-16T00:05:43;4.20;99.90
37594;DHT22;23441;50.856;6.076;2023-01-16T00:08:09;4.20;99.90
37594;DHT22;23441;50.856;6.076;2023-01-16T00:10:35;4.10;99.90
37594;DHT22;23441;50.856;6.076;2023-01-16T00:13:01;4.10;99.90
37594;DHT22;23441;50.856;6.076;2023-01-16T00:15:26;4.10;99.90
37594;DHT22;23441;50.856;6.076;2023-01-16T00:17:52;4.10;99.90
37594;DHT22;23441;50.856;6.076;2023-01-16T00:20:18;4.00;99.90
37594;DHT22;23441;50.856;6.076;2023-01-16T00:22:43;4.00;99.90
37594;DHT22;23441;50.856;6.076;2023-01-16T00:25:09;4.10;99.90
37594;DHT22;23441;50.856;6.076;2023-01-16T00:27:35;4.00;99.90
37594;DHT22;23441;50.856;6.076;2023-01-16T00:30:00;4.00;99.90
37594;DHT22;23441;50.856;6.076;2023-01-16T00:32:26;3.90;99.90
37594;DHT22;23441;50.856;6.076;2023-01-16T00:34:51;4.00;99.90
37594;DHT22;23441;50.856;6.076;2023-01-16T00:37:17;4.10;99.90
37594;DHT22;23441;50.856;6.076;2023-01-16T00:39:43;4.10;99.90
37594;DHT22;23441;50.856;6.076;2023-01-16T00:42:08;4.10;99.90
37594;DHT22;23441;50.856;6.076;2023-01-16T00:44:34;4.10;99.90
37594;DHT22;23441;50.856;6.076;2023-01-16T00:47:00;4.20;99.90
37594;DHT22;23441;50.856;6.076;2023-01-16T00:49:25;4.20;99.90
37594;DHT22;23441;50.856;6.076;2023-01-16T00:51:52;4.20;99.90
37594;DHT22;23441;50.856;6.076;2023-01-16T00:54:18;4.20;99.90
37594;DHT22;23441;50.856;6.076;2023-01-16T00:56:44;4.20;99.90
37594;DHT22;23441;50.856;6.076;2023-01-16T00:59:10;4.20;99.90
37594;DHT22;23441;50.856;6.076;2023-01-16T01:01:36;4.20;99.90
37594;DHT22;23441;50.856;6.076;2023-01-16T01:04:03;4.20;99.90
37594;DHT22;23441;50.856;6.076;2023-01-16T01:06:29;4.20;99.90
37594;DHT22;23441;50.856;6.076;2023-01-16T01:08:55;4.10;99.90
37594;DHT22;23441;50.856;6.076;2023-01-16T01:11:20;4.10;99.90
37594;DHT22;23441;50.856;6.076;2023-01-16T01:13:46;4.10;99.90
37594;DHT22;23441;50.856;6.076;2023-01-16T01:16:12;4.00;99.90
37594;DHT22;23441;50.856;6.076;2023-01-16T01:18:38;4.00;99.90
37594;DHT22;23441;50.856;6.076;2023-01-16T01:21:05;3.90;99.90
37594;DHT22;23441;50.856;6.076;2023-01-16T01:23:30;3.90;99.90
37594;DHT22;23441;50.856;6.076;2023-01-16T01:25:56;3.90;99.90
37594;DHT22;23441;50.856;6.076;2023-01-16T01:28:22;3.90;99.90
37594;DHT22;23441;50.856;6.076;2023-01-16T01:30:47;3.90;99.90
37594;DHT22;23441;50.856;6.076;2023-01-16T01:33:13;3.90;99.90
37594;DHT22;23441;50.856;6.076;2023-01-16T01:35:39;3.90;99.90
37594;DHT22;23441;50.856;6.076;2023-01-16T01:38:04;3.90;99.90
37594;DHT22;23441;50.856;6.076;2023-01-16T01:40:31;3.80;99.90
37594;DHT22;23441;50.856;6.076;2023-01-16T01:42:57;3.80;99.90
37594;DHT22;23441;50.856;6.076;2023-01-16T01:45:28;3.80;99.90
37594;DHT22;23441;50.856;6.076;2023-01-16T01:48:15;3.80;99.90
37594;DHT22;23441;50.856;6.076;2023-01-16T01:55:50;3.80;99.90
37594;DHT22;23441;50.856;6.076;2023-01-16T01:58:20;3.80;99.90
37594;DHT22;23441;50.856;6.076;2023-01-16T02:00:50;3.80;99.90
37594;DHT22;23441;50.856;6.076;2023-01-16T02:03:21;3.80;99.90
37594;DHT22;23441;50.856;6.076;2023-01-16T02:05:52;3.80;99.90
37594;DHT22;23441;50.856;6.076;2023-01-16T02:08:21;3.70;99.90
37594;DHT22;23441;50.856;6.076;2023-01-16T02:10:51;3.70;99.90
37594;DHT22;23441;50.856;6.076;2023-01-16T02:13:18;3.70;99.90
37594;DHT22;23441;50.856;6.076;2023-01-16T02:15:44;3.70;99.90
37594;DHT22;23441;50.856;6.076;2023-01-16T02:18:29;3.70;99.90
37594;DHT22;23441;50.856;6.076;2023-01-16T02:29:15;4.00;99.90
37594;DHT22;23441;50.856;6.076;2023-01-16T02:39:44;3.90;99.90
37594;DHT22;23441;50.856;6.076;2023-01-16T02:42:24;3.80;99.90
37594;DHT22;23441;50.856;6.076;2023-01-16T02:45:10;3.70;99.90
37594;DHT22;23441;50.856;6.076;2023-01-16T02:53:32;3.50;99.90
37594;DHT22;23441;50.856;6.076;2023-01-16T02:56:07;3.40;99.90
37594;DHT22;23441;50.856;6.076;2023-01-16T02:58:41;3.40;99.90
37594;DHT22;23441;50.856;6.076;2023-01-16T03:01:08;3.50;99.90
37594;DHT22;23441;50.856;6.076;2023-01-16T03:09:10;3.50;99.90
37594;DHT22;23441;50.856;6.076;2023-01-16T03:17:17;3.50;99.90
37594;DHT22;23441;50.856;6.076;2023-01-16T03:19:53;3.50;99.90
37594;DHT22;23441;50.856;6.076;2023-01-16T03:25:35;3.50;99.90
37594;DHT22;23441;50.856;6.076;2023-01-16T03:28:34;3.50;99.90
37594;DHT22;23441;50.856;6.076;2023-01-16T03:31:08;3.60;99.90
37594;DHT22;23441;50.856;6.076;2023-01-16T03:34:00;3.70;99.90
37594;DHT22;23441;50.856;6.076;2023-01-16T03:36:52;3.60;99.90
37594;DHT22;23441;50.856;6.076;2023-01-16T03:39:23;3.70;99.90
37594;DHT22;23441;50.856;6.076;2023-01-16T03:41:53;3.70;99.90
37594;DHT22;23441;50.856;6.076;2023-01-16T03:44:28;3.70;99.90
37594;DHT22;23441;50.856;6.076;2023-01-16T03:46:55;3.70;99.90
37594;DHT22;23441;50.856;6.076;2023-01-16T03:49:37;3.80;99.90
37594;DHT22;23441;50.856;6.076;2023-01-16T03:52:06;3.80;99.90
37594;DHT22;23441;50.856;6.076;2023-01-16T03:54:45;3.80;99.90
37594;DHT22;23441;50.856;6.076;2023-01-16T03:59:48;4.00;99.90
37594;DHT22;23441;50.856;6.076;2023-01-16T04:02:26;4.10;99.90
37594;DHT22;23441;50.856;6.076;2023-01-16T04:05:07;4.10;99.90
37594;DHT22;23441;50.856;6.076;2023-01-16T04:07:39;4.10;99.90
37594;DHT22;23441;50.856;6.076;2023-01-16T04:10:27;4.20;99.90
37594;DHT22;23441;50.856;6.076;2023-01-16T04:13:03;4.20;99.90
37594;DHT22;23441;50.856;6.076;2023-01-16T04:15:32;4.30;99.90
37594;DHT22;23441;50.856;6.076;2023-01-16T04:17:59;4.30;99.90
37594;DHT22;23441;50.856;6.076;2023-01-16T04:20:26;4.30;99.90
37594;DHT22;23441;50.856;6.076;2023-01-16T04:22:53;4.30;99.90
37594;DHT22;23441;50.856;6.076;2023-01-16T04:25:20;4.30;99.90
37594;DHT22;23441;50.856;6.076;2023-01-16T04:27:46;4.30;99.90
37594;DHT22;23441;50.856;6.076;2023-01-16T04:30:12;4.30;99.90
37594;DHT22;23441;50.856;6.076;2023-01-16T04:32:37;4.30;99.90
37594;DHT22;23441;50.856;6.076;2023-01-16T04:35:04;4.40;99.90
37594;DHT22;23441;50.856;6.076;2023-01-16T04:37:30;4.40;99.90
37594;DHT22;23441;50.856;6.076;2023-01-16T04:39:56;4.50;99.90
37594;DHT22;23441;50.856;6.076;2023-01-16T04:42:21;4.60;99.90
37594;DHT22;23441;50.856;6.076;2023-01-16T04:44:47;4.60;99.90
37594;DHT22;23441;50.856;6.076;2023-01-16T04:47:13;4.60;99.90
37594;DHT22;23441;50.856;6.076;2023-01-16T04:49:38;4.60;99.90
37594;DHT22;23441;50.856;6.076;2023-01-16T04:52:04;4.60;99.90
37594;DHT22;23441;50.856;6.076;2023-01-16T04:54:30;4.60;99.90
37594;DHT22;23441;50.856;6.076;2023-01-16T04:56:56;4.60;99.90
37594;DHT22;23441;50.856;6.076;2023-01-16T04:59:21;4.60;99.90
37594;DHT22;23441;50.856;6.076;2023-01-16T05:01:47;4.70;99.90
37594;DHT22;23441;50.856;6.076;2023-01-16T05:04:14;4.70;99.90
37594;DHT22;23441;50.856;6.076;2023-01-16T05:06:41;4.80;99.90
37594;DHT22;23441;50.856;6.076;2023-01-16T05:09:07;4.80;99.90
37594;DHT22;23441;50.856;6.076;2023-01-16T05:11:33;4.80;99.90
37594;DHT22;23441;50.856;6.076;2023-01-16T05:13:59;4.80;99.90
37594;DHT22;23441;50.856;6.076;2023-01-16T05:16:25;4.80;99.90
37594;DHT22;23441;50.856;6.076;2023-01-16T05:18:50;4.80;99.90
37594;DHT22;23441;50.856;6.076;2023-01-16T05:21:16;4.70;99.90
37594;DHT22;23441;50.856;6.076;2023-01-16T05:23:42;4.70;99.90
37594;DHT22;23441;50.856;6.076;2023-01-16T05:26:08;4.70;99.90
37594;DHT22;23441;50.856;6.076;2023-01-16T05:28:34;4.80;99.90
37594;DHT22;23441;50.856;6.076;2023-01-16T05:31:01;4.70;99.90
37594;DHT22;23441;50.856;6.076;2023-01-16T05:33:26;4.80;99.90
37594;DHT22;23441;50.856;6.076;2023-01-16T05:35:52;4.80;99.90
37594;DHT22;23441;50.856;6.076;2023-01-16T05:38:19;4.90;99.90
37594;DHT22;23441;50.856;6.076;2023-01-16T05:40:45;4.90;99.90
37594;DHT22;23441;50.856;6.076;2023-01-16T05:43:11;4.90;99.90
37594;DHT22;23441;50.856;6.076;2023-01-16T05:45:37;5.00;99.90
37594;DHT22;23441;50.856;6.076;2023-01-16T05:48:03;5.00;99.90
37594;DHT22;23441;50.856;6.076;2023-01-16T05:50:29;5.00;99.90
37594;DHT22;23441;50.856;6.076;2023-01-16T05:52:54;5.10;99.90
37594;DHT22;23441;50.856;6.076;2023-01-16T05:55:20;5.10;99.90
37594;DHT22;23441;50.856;6.076;2023-01-16T05:57:45;5.10;99.90
37594;DHT22;23441;50.856;6.076;2023-01-16T06:00:11;5.10;99.90
37594;DHT22;23441;50.856;6.076;2023-01-16T06:02:37;5.10;99.90
37594;DHT22;23441;50.856;6.076;2023-01-16T06:05:03;5.10;99.90
37594;DHT22;23441;50.856;6.076;2023-01-16T06:07:29;5.20;99.90
37594;DHT22;23441;50.856;6.076;2023-01-16T06:09:54;5.20;99.90
37594;DHT22;23441;50.856;6.076;2023-01-16T06:12:20;5.20;99.90
37594;DHT22;23441;50.856;6.076;2023-01-16T06:14:46;5.20;99.90
37594;DHT22;23441;50.856;6.076;2023-01-16T06:17:12;5.20;99.90
37594;DHT22;23441;50.856;6.076;2023-01-16T06:19:41;5.20;99.90
37594;DHT22;23441;50.856;6.076;2023-01-16T06:22:07;5.20;99.90
37594;DHT22;23441;50.856;6.076;2023-01-16T06:24:33;5.20;99.90
37594;DHT22;23441;50.856;6.076;2023-01-16T06:26:59;5.20;99.90
37594;DHT22;23441;50.856;6.076;2023-01-16T06:29:24;5.20;99.90
37594;DHT22;23441;50.856;6.076;2023-01-16T06:31:50;5.30;99.90
37594;DHT22;23441;50.856;6.076;2023-01-16T06:34:16;5.20;99.90
37594;DHT22;23441;50.856;6.076;2023-01-16T06:36:42;5.20;99.90
37594;DHT22;23441;50.856;6.076;2023-01-16T06:39:12;5.30;99.90
37594;DHT22;23441;50.856;6.076;2023-01-16T06:41:38;5.30;99.90
37594;DHT22;23441;50.856;6.076;2023-01-16T06:44:04;5.20;99.90
37594;DHT22;23441;50.856;6.076;2023-01-16T06:46:29;5.20;99.90
37594;DHT22;23441;50.856;6.076;2023-01-16T06:48:55;5.30;99.90
37594;DHT22;23441;50.856;6.076;2023-01-16T06:51:20;5.20;99.90
37594;DHT22;23441;50.856;6.076;2023-01-16T06:53:46;5.20;99.90
37594;DHT22;23441;50.856;6.076;2023-01-16T06:56:11;5.20;99.90
37594;DHT22;23441;50.856;6.076;2023-01-16T06:58:37;5.20;99.90
37594;DHT22;23441;50.856;6.076;2023-01-16T07:01:03;5.10;99.90
37594;DHT22;23441;50.856;6.076;2023-01-16T07:03:28;5.10;99.90
37594;DHT22;23441;50.856;6.076;2023-01-16T07:05:54;5.10;99.90
37594;DHT22;23441;50.856;6.076;2023-01-16T07:08:19;5.00;99.90
37594;DHT22;23441;50.856;6.076;2023-01-16T07:10:45;5.00;99.90
37594;DHT22;23441;50.856;6.076;2023-01-16T07:13:11;5.00;99.90
37594;DHT22;23441;50.856;6.076;2023-01-16T07:15:37;5.00;99.90
37594;DHT22;23441;50.856;6.076;2023-01-16T07:18:21;4.90;99.90
37594;DHT22;23441;50.856;6.076;2023-01-16T07:21:11;4.90;99.90
37594;DHT22;23441;50.856;6.076;2023-01-16T07:24:06;4.90;99.90
37594;DHT22;23441;50.856;6.076;2023-01-16T07:26:33;4.90;99.90
37594;DHT22;23441;50.856;6.076;2023-01-16T07:29:00;4.90;99.90
37594;DHT22;23441;50.856;6.076;2023-01-16T07:31:27;4.90;99.90
37594;DHT22;23441;50.856;6.076;2023-01-16T07:33:53;4.80;99.90
37594;DHT22;23441;50.856;6.076;2023-01-16T07:36:19;4.80;99.90
37594;DHT22;23441;50.856;6.076;2023-01-16T07:38:45;4.80;99.90
37594;DHT22;23441;50.856;6.076;2023-01-16T07:41:11;4.80;99.90
37594;DHT22;23441;50.856;6.076;2023-01-16T07:43:36;4.80;99.90
37594;DHT22;23441;50.856;6.076;2023-01-16T07:46:02;4.80;99.90
37594;DHT22;23441;50.856;6.076;2023-01-16T07:48:28;4.80;99.90
37594;DHT22;23441;50.856;6.076;2023-01-16T07:50:55;4.80;99.90
37594;DHT22;23441;50.856;6.076;2023-01-16T07:53:22;4.70;99.90
37594;DHT22;23441;50.856;6.076;2023-01-16T07:55:49;4.70;99.90
37594;DHT22;23441;50.856;6.076;2023-01-16T07:58:16;4.70;99.90
37594;DHT22;23441;50.856;6.076;2023-01-16T08:00:42;4.70;99.90
37594;DHT22;23441;50.856;6.076;2023-01-16T08:03:08;4.70;99.90
37594;DHT22;23441;50.856;6.076;2023-01-16T08:05:33;4.70;99.90
37594;DHT22;23441;50.856;6.076;2023-01-16T08:07:59;4.70;99.90
37594;DHT22;23441;50.856;6.076;2023-01-16T08:10:24;4.70;99.90
37594;DHT22;23441;50.856;6.076;2023-01-16T08:12:50;4.60;99.90
37594;DHT22;23441;50.856;6.076;2023-01-16T08:15:16;4.60;99.90
37594;DHT22;23441;50.856;6.076;2023-01-16T08:17:41;4.60;99.90
37594;DHT22;23441;50.856;6.076;2023-01-16T08:20:08;4.70;99.90
37594;DHT22;23441;50.856;6.076;2023-01-16T08:22:34;4.70;99.90
37594;DHT22;23441;50.856;6.076;2023-01-16T08:25:00;4.70;99.90
37594;DHT22;23441;50.856;6.076;2023-01-16T08:27:25;4.70;99.90
37594;DHT22;23441;50.856;6.076;2023-01-16T08:29:51;4.70;99.90
37594;DHT22;23441;50.856;6.076;2023-01-16T08:32:16;4.70;99.90
37594;DHT22;23441;50.856;6.076;2023-01-16T08:34:42;4.70;99.90
37594;DHT22;23441;50.856;6.076;2023-01-16T08:37:08;4.70;99.90
37594;DHT22;23441;50.856;6.076;2023-01-16T08:39:38;4.70;99.90
37594;DHT22;23441;50.856;6.076;2023-01-16T08:42:04;4.70;99.90
37594;DHT22;23441;50.856;6.076;2023-01-16T08:44:48;4.70;99.90
37594;DHT22;23441;50.856;6.076;2023-01-16T08:47:33;4.70;99.90
37594;DHT22;23441;50.856;6.076;2023-01-16T08:50:18;4.70;99.90
37594;DHT22;23441;50.856;6.076;2023-01-16T08:53:03;4.70;99.90
37594;DHT22;23441;50.856;6.076;2023-01-16T08:55:29;4.70;99.90
37594;DHT22;23441;50.856;6.076;2023-01-16T08:57:55;4.80;99.90
37594;DHT22;23441;50.856;6.076;2023-01-16T09:00:25;4.80;99.90
37594;DHT22;23441;50.856;6.076;2023-01-16T09:02:51;4.80;99.90
37594;DHT22;23441;50.856;6.076;2023-01-16T09:05:17;4.80;99.90
37594;DHT22;23441;50.856;6.076;2023-01-16T09:07:43;4.80;99.90
37594;DHT22;23441;50.856;6.076;2023-01-16T09:10:09;4.90;99.90
37594;DHT22;23441;50.856;6.076;2023-01-16T09:12:35;4.90;99.90
37594;DHT22;23441;50.856;6.076;2023-01-16T09:15:19;4.90;99.90
37594;DHT22;23441;50.856;6.076;2023-01-16T09:17:45;4.80;99.90
37594;DHT22;23441;50.856;6.076;2023-01-16T09:20:11;4.90;99.90
37594;DHT22;23441;50.856;6.076;2023-01-16T09:22:36;4.90;99.90
37594;DHT22;23441;50.856;6.076;2023-01-16T09:25:02;4.90;99.90
37594;DHT22;23441;50.856;6.076;2023-01-16T09:27:28;4.90;99.90
37594;DHT22;23441;50.856;6.076;2023-01-16T09:29:53;4.90;99.90
37594;DHT22;23441;50.856;6.076;2023-01-16T09:32:19;4.90;99.90
37594;DHT22;23441;50.856;6.076;2023-01-16T09:34:45;5.00;99.90
37594;DHT22;23441;50.856;6.076;2023-01-16T09:37:11;5.00;99.90
37594;DHT22;23441;50.856;6.076;2023-01-16T09:39:37;5.00;99.90
37594;DHT22;23441;50.856;6.076;2023-01-16T09:45:02;5.00;99.90
37594;DHT22;23441;50.856;6.076;2023-01-16T09:47:30;5.00;99.90
37594;DHT22;23441;50.856;6.076;2023-01-16T09:50:06;5.10;99.90
37594;DHT22;23441;50.856;6.076;2023-01-16T09:52:36;5.10;99.90
37594;DHT22;23441;50.856;6.076;2023-01-16T09:55:47;5.20;99.90
37594;DHT22;23441;50.856;6.076;2023-01-16T09:58:32;5.20;99.90
37594;DHT22;23441;50.856;6.076;2023-01-16T10:01:23;5.30;99.90
37594;DHT22;23441;50.856;6.076;2023-01-16T10:04:09;5.30;99.90
37594;DHT22;23441;50.856;6.076;2023-01-16T10:06:42;5.40;99.90
37594;DHT22;23441;50.856;6.076;2023-01-16T10:12:09;5.50;99.90
37594;DHT22;23441;50.856;6.076;2023-01-16T10:15:50;5.50;99.90
37594;DHT22;23441;50.856;6.076;2023-01-16T10:31:14;6.50;99.90
37594;DHT22;23441;50.856;6.076;2023-01-16T10:33:56;6.50;99.90
37594;DHT22;23441;50.856;6.076;2023-01-16T10:36:26;6.60;99.90
37594;DHT22;23441;50.856;6.076;2023-01-16T10:38:56;6.60;99.90
37594;DHT22;23441;50.856;6.076;2023-01-16T10:41:37;6.60;99.90
37594;DHT22;23441;50.856;6.076;2023-01-16T10:44:37;6.60;99.90
37594;DHT22;23441;50.856;6.076;2023-01-16T10:47:28;6.70;99.90
37594;DHT22;23441;50.856;6.076;2023-01-16T10:50:14;6.80;99.90
37594;DHT22;23441;50.856;6.076;2023-01-16T10:52:40;6.70;99.90
37594;DHT22;23441;50.856;6.076;2023-01-16T10:55:07;6.70;99.90
37594;DHT22;23441;50.856;6.076;2023-01-16T10:57:34;6.60;99.90
37594;DHT22;23441;50.856;6.076;2023-01-16T11:00:10;6.50;99.90
37594;DHT22;23441;50.856;6.076;2023-01-16T11:02:40;6.40;99.90
37594;DHT22;23441;50.856;6.076;2023-01-16T11:05:26;6.30;99.90
37594;DHT22;23441;50.856;6.076;2023-01-16T11:07:53;6.30;99.90
37594;DHT22;23441;50.856;6.076;2023-01-16T11:10:19;6.20;99.90
37594;DHT22;23441;50.856;6.076;2023-01-16T11:12:45;6.20;99.90
37594;DHT22;23441;50.856;6.076;2023-01-16T11:15:29;6.30;99.90
37594;DHT22;23441;50.856;6.076;2023-01-16T11:18:27;6.40;99.90
37594;DHT22;23441;50.856;6.076;2023-01-16T11:21:01;6.60;99.90
37594;DHT22;23441;50.856;6.076;2023-01-16T11:23:37;6.80;99.90
37594;DHT22;23441;50.856;6.076;2023-01-16T11:26:04;6.90;99.90
37594;DHT22;23441;50.856;6.076;2023-01-16T11:28:31;6.90;99.90
37594;DHT22;23441;50.856;6.076;2023-01-16T11:31:20;7.00;99.90
37594;DHT22;23441;50.856;6.076;2023-01-16T11:33:52;7.00;99.90
37594;DHT22;23441;50.856;6.076;2023-01-16T11:36:25;7.20;99.90
37594;DHT22;23441;50.856;6.076;2023-01-16T11:38:51;7.10;99.90
37594;DHT22;23441;50.856;6.076;2023-01-16T11:41:20;7.10;99.90
37594;DHT22;23441;50.856;6.076;2023-01-16T11:43:53;7.10;99.90
37594;DHT22;23441;50.856;6.076;2023-01-16T11:46:49;7.10;99.90
37594;DHT22;23441;50.856;6.076;2023-01-16T11:49:35;7.00;99.90
37594;DHT22;23441;50.856;6.076;2023-01-16T11:52:01;7.00;99.90
37594;DHT22;23441;50.856;6.076;2023-01-16T11:54:32;7.00;99.90
37594;DHT22;23441;50.856;6.076;2023-01-16T11:59:54;7.00;99.90
37594;DHT22;23441;50.856;6.076;2023-01-16T12:05:25;6.90;99.90
37594;DHT22;23441;50.856;6.076;2023-01-16T12:10:57;6.70;99.90
37594;DHT22;23441;50.856;6.076;2023-01-16T12:13:54;6.60;99.90
37594;DHT22;23441;50.856;6.076;2023-01-16T12:24:55;6.40;99.90
37594;DHT22;23441;50.856;6.076;2023-01-16T12:35:13;6.00;99.90
37594;DHT22;23441;50.856;6.076;2023-01-16T12:40:43;5.90;99.90
37594;DHT22;23441;50.856;6.076;2023-01-16T12:43:32;6.00;99.90
37594;DHT22;23441;50.856;6.076;2023-01-16T12:46:02;6.00;99.90
37594;DHT22;23441;50.856;6.076;2023-01-16T12:48:50;6.10;99.90
37594;DHT22;23441;50.856;6.076;2023-01-16T12:59:18;6.10;99.90
37594;DHT22;23441;50.856;6.076;2023-01-16T13:01:47;6.10;99.90
37594;DHT22;23441;50.856;6.076;2023-01-16T13:04:33;6.10;99.90
37594;DHT22;23441;50.856;6.076;2023-01-16T13:07:00;6.10;99.90
37594;DHT22;23441;50.856;6.076;2023-01-16T13:09:41;6.00;99.90
37594;DHT22;23441;50.856;6.076;2023-01-16T13:12:14;6.00;99.90
37594;DHT22;23441;50.856;6.076;2023-01-16T13:15:05;6.00;99.90
37594;DHT22;23441;50.856;6.076;2023-01-16T13:17:58;6.00;99.90
37594;DHT22;23441;50.856;6.076;2023-01-16T13:20:25;5.90;99.90
37594;DHT22;23441;50.856;6.076;2023-01-16T13:23:04;6.00;99.90
37594;DHT22;23441;50.856;6.076;2023-01-16T13:25:41;6.00;99.90
37594;DHT22;23441;50.856;6.076;2023-01-16T13:30:39;6.00;99.90
37594;DHT22;23441;50.856;6.076;2023-01-16T13:33:09;6.00;99.90
37594;DHT22;23441;50.856;6.076;2023-01-16T13:43:51;6.00;99.90
37594;DHT22;23441;50.856;6.076;2023-01-16T13:46:37;6.00;99.90
37594;DHT22;23441;50.856;6.076;2023-01-16T13:49:04;6.00;99.90
37594;DHT22;23441;50.856;6.076;2023-01-16T13:51:31;6.00;99.90
37594;DHT22;23441;50.856;6.076;2023-01-16T13:54:14;5.90;99.90
37594;DHT22;23441;50.856;6.076;2023-01-16T13:56:40;5.80;99.90
37594;DHT22;23441;50.856;6.076;2023-01-16T14:01:56;5.60;99.90
37594;DHT22;23441;50.856;6.076;2023-01-16T14:06:49;5.30;99.90
37594;DHT22;23441;50.856;6.076;2023-01-16T14:17:27;5.20;99.90
37594;DHT22;23441;50.856;6.076;2023-01-16T14:19:58;5.20;99.90
37594;DHT22;23441;50.856;6.076;2023-01-16T14:22:40;5.20;99.90
37594;DHT22;23441;50.856;6.076;2023-01-16T14:25:16;5.10;99.90
37594;DHT22;23441;50.856;6.076;2023-01-16T14:27:44;5.20;99.90
37594;DHT22;23441;50.856;6.076;2023-01-16T14:30:19;5.10;99.90
37594;DHT22;23441;50.856;6.076;2023-01-16T14:32:56;5.10;99.90
37594;DHT22;23441;50.856;6.076;2023-01-16T14:35:30;5.10;99.90
37594;DHT22;23441;50.856;6.076;2023-01-16T14:38:12;5.10;99.90
37594;DHT22;23441;50.856;6.076;2023-01-16T14:40:39;5.10;99.90
37594;DHT22;23441;50.856;6.076;2023-01-16T14:43:32;5.10;99.90
37594;DHT22;23441;50.856;6.076;2023-01-16T14:52:44;5.20;99.90
37594;DHT22;23441;50.856;6.076;2023-01-16T15:01:00;5.30;99.90
37594;DHT22;23441;50.856;6.076;2023-01-16T15:04:00;5.30;99.90
37594;DHT22;23441;50.856;6.076;2023-01-16T15:06:33;5.40;99.90
37594;DHT22;23441;50.856;6.076;2023-01-16T15:08:59;5.30;99.90
37594;DHT22;23441;50.856;6.076;2023-01-16T15:11:28;5.30;99.90
37594;DHT22;23441;50.856;6.076;2023-01-16T15:17:13;5.40;99.90
37594;DHT22;23441;50.856;6.076;2023-01-16T15:23:30;5.40;99.90
37594;DHT22;23441;50.856;6.076;2023-01-16T15:31:23;5.30;99.90
37594;DHT22;23441;50.856;6.076;2023-01-16T15:34:00;5.30;99.90
37594;DHT22;23441;50.856;6.076;2023-01-16T15:36:41;5.30;99.90
37594;DHT22;23441;50.856;6.076;2023-01-16T15:39:23;5.20;99.90
37594;DHT22;23441;50.856;6.076;2023-01-16T15:44:46;5.20;99.90
37594;DHT22;23441;50.856;6.076;2023-01-16T15:51:00;5.10;99.90
37594;DHT22;23441;50.856;6.076;2023-01-16T15:53:36;5.10;99.90
37594;DHT22;23441;50.856;6.076;2023-01-16T15:56:29;5.10;99.90
37594;DHT22;23441;50.856;6.076;2023-01-16T15:58:56;5.10;99.90
37594;DHT22;23441;50.856;6.076;2023-01-16T16:01:30;5.00;99.90
37594;DHT22;23441;50.856;6.076;2023-01-16T16:03:57;4.90;99.90
37594;DHT22;23441;50.856;6.076;2023-01-16T16:06:24;5.00;99.90
37594;DHT22;23441;50.856;6.076;2023-01-16T16:08:52;4.90;99.90
37594;DHT22;23441;50.856;6.076;2023-01-16T16:11:26;5.00;99.90
37594;DHT22;23441;50.856;6.076;2023-01-16T16:14:29;5.00;99.90
37594;DHT22;23441;50.856;6.076;2023-01-16T16:17:24;4.90;99.90
37594;DHT22;23441;50.856;6.076;2023-01-16T16:23:17;4.90;99.90
37594;DHT22;23441;50.856;6.076;2023-01-16T16:26:02;4.90;99.90
37594;DHT22;23441;50.856;6.076;2023-01-16T16:31:15;4.90;99.90
37594;DHT22;23441;50.856;6.076;2023-01-16T16:33:42;4.80;99.90
37594;DHT22;23441;50.856;6.076;2023-01-16T16:36:14;4.80;99.90
37594;DHT22;23441;50.856;6.076;2023-01-16T16:38:41;4.80;99.90
37594;DHT22;23441;50.856;6.076;2023-01-16T16:41:41;4.90;99.90
37594;DHT22;23441;50.856;6.076;2023-01-16T16:43:58;4.90;99.90
37594;DHT22;23441;50.856;6.076;2023-01-16T16:51:22;4.90;99.90
37594;DHT22;23441;50.856;6.076;2023-01-16T16:53:53;4.90;99.90
37594;DHT22;23441;50.856;6.076;2023-01-16T16:56:22;4.80;99.90
37594;DHT22;23441;50.856;6.076;2023-01-16T16:58:49;4.80;99.90
37594;DHT22;23441;50.856;6.076;2023-01-16T17:01:18;4.90;99.90
37594;DHT22;23441;50.856;6.076;2023-01-16T17:03:44;4.90;99.90
37594;DHT22;23441;50.856;6.076;2023-01-16T17:06:20;4.90;99.90
37594;DHT22;23441;50.856;6.076;2023-01-16T17:08:46;4.90;99.90
37594;DHT22;23441;50.856;6.076;2023-01-16T17:11:13;4.90;99.90
37594;DHT22;23441;50.856;6.076;2023-01-16T17:13:39;4.90;99.90
37594;DHT22;23441;50.856;6.076;2023-01-16T17:16:05;4.80;99.90
37594;DHT22;23441;50.856;6.076;2023-01-16T17:18:35;4.80;99.90
37594;DHT22;23441;50.856;6.076;2023-01-16T17:21:01;4.80;99.90
37594;DHT22;23441;50.856;6.076;2023-01-16T17:23:27;4.70;99.90
37594;DHT22;23441;50.856;6.076;2023-01-16T17:25:52;4.70;99.90
37594;DHT22;23441;50.856;6.076;2023-01-16T17:28:18;4.80;99.90
37594;DHT22;23441;50.856;6.076;2023-01-16T17:30:43;4.70;99.90
37594;DHT22;23441;50.856;6.076;2023-01-16T17:33:15;4.70;99.90
37594;DHT22;23441;50.856;6.076;2023-01-16T17:35:43;4.70;99.90
37594;DHT22;23441;50.856;6.076;2023-01-16T17:38:12;4.70;99.90
37594;DHT22;23441;50.856;6.076;2023-01-16T17:40:38;4.70;99.90
37594;DHT22;23441;50.856;6.076;2023-01-16T17:43:04;4.60;99.90
37594;DHT22;23441;50.856;6.076;2023-01-16T17:45:50;4.60;99.90
37594;DHT22;23441;50.856;6.076;2023-01-16T17:48:27;4.60;99.90
37594;DHT22;23441;50.856;6.076;2023-01-16T17:50:54;4.50;99.90
37594;DHT22;23441;50.856;6.076;2023-01-16T17:53:22;4.50;99.90
37594;DHT22;23441;50.856;6.076;2023-01-16T17:55:50;4.40;99.90
37594;DHT22;23441;50.856;6.076;2023-01-16T17:58:20;4.40;99.90
37594;DHT22;23441;50.856;6.076;2023-01-16T18:00:56;4.40;99.90
37594;DHT22;23441;50.856;6.076;2023-01-16T18:03:22;4.40;99.90
37594;DHT22;23441;50.856;6.076;2023-01-16T18:05:47;4.50;99.90
37594;DHT22;23441;50.856;6.076;2023-01-16T18:08:13;4.40;99.90
37594;DHT22;23441;50.856;6.076;2023-01-16T18:10:40;4.40;99.90
37594;DHT22;23441;50.856;6.076;2023-01-16T18:13:05;4.40;99.90
37594;DHT22;23441;50.856;6.076;2023-01-16T18:15:49;4.40;99.90
37594;DHT22;23441;50.856;6.076;2023-01-16T18:18:34;4.40;99.90
37594;DHT22;23441;50.856;6.076;2023-01-16T18:20:59;4.40;99.90
37594;DHT22;23441;50.856;6.076;2023-01-16T18:23:44;4.40;99.90
37594;DHT22;23441;50.856;6.076;2023-01-16T18:26:09;4.30;99.90
37594;DHT22;23441;50.856;6.076;2023-01-16T18:28:35;4.20;99.90
37594;DHT22;23441;50.856;6.076;2023-01-16T18:31:05;4.00;99.90
37594;DHT22;23441;50.856;6.076;2023-01-16T18:33:34;4.00;99.90
37594;DHT22;23441;50.856;6.076;2023-01-16T18:36:03;4.00;99.90
37594;DHT22;23441;50.856;6.076;2023-01-16T18:38:32;3.90;99.90
37594;DHT22;23441;50.856;6.076;2023-01-16T18:41:17;3.90;99.90
37594;DHT22;23441;50.856;6.076;2023-01-16T18:44:02;3.70;99.90
37594;DHT22;23441;50.856;6.076;2023-01-16T18:46:46;3.60;99.90
37594;DHT22;23441;50.856;6.076;2023-01-16T18:49:30;3.60;99.90
37594;DHT22;23441;50.856;6.076;2023-01-16T18:52:16;3.50;99.90
37594;DHT22;23441;50.856;6.076;2023-01-16T18:55:03;3.50;99.90